sensor_id;sensor_type;location;lat;lon;timestamp;pressure;altitude;pressure_sealevel;temperature;humidity
76637;BME280;65532;52.124;5.480;2023-05-03T00:01:30;102977.81;;;3.79;92.30
76637;BME280;65532;52.124;5.480;2023-05-03T00:03:57;102971.47;;;3.80;92.58
76637;BME280;65532;52.124;5.480;2023-05-03T00:06:23;102976.94;;;3.78;92.32
76637;BME280;65532;52.124;5.480;2023-05-03T00:08:50;102979.63;;;3.78;92.22
76637;BME280;65532;52.124;5.480;2023-05-03T00:11:17;102967.34;;;3.76;91.93
76637;BME280;65532;52.124;5.480;2023-05-03T00:13:43;102968.19;;;3.76;91.90
76637;BME280;65532;52.124;5.480;2023-05-03T00:16:10;102965.78;;;3.73;92.36
76637;BME280;65532;52.124;5.480;2023-05-03T00:18:36;102963.25;;;3.72;91.92
76637;BME280;65532;52.124;5.480;2023-05-03T00:21:03;102960.97;;;3.67;91.84
76637;BME280;65532;52.124;5.480;2023-05-03T00:23:30;102964.63;;;3.66;92.15
76637;BME280;65532;52.124;5.480;2023-05-03T00:25:57;102970.00;;;3.66;92.58
76637;BME280;65532;52.124;5.480;2023-05-03T00:28:24;102971.97;;;3.64;92.33
76637;BME280;65532;52.124;5.480;2023-05-03T00:30:51;102964.56;;;3.56;92.23
76637;BME280;65532;52.124;5.480;2023-05-03T00:33:18;102963.03;;;3.54;92.19
76637;BME280;65532;52.124;5.480;2023-05-03T00:35:44;102966.81;;;3.51;92.37
76637;BME280;65532;52.124;5.480;2023-05-03T00:38:11;102970.59;;;3.49;91.87
76637;BME280;65532;52.124;5.480;2023-05-03T00:40:39;102975.22;;;3.47;92.36
76637;BME280;65532;52.124;5.480;2023-05-03T00:43:06;102966.75;;;3.42;92.04
76637;BME280;65532;52.124;5.480;2023-05-03T00:45:33;102967.56;;;3.33;92.54
76637;BME280;65532;52.124;5.480;2023-05-03T00:48:00;102962.69;;;3.26;92.28
76637;BME280;65532;52.124;5.480;2023-05-03T00:50:27;102960.88;;;3.27;91.83
76637;BME280;65532;52.124;5.480;2023-05-03T00:52:54;102971.84;;;3.24;91.71
76637;BME280;65532;52.124;5.480;2023-05-03T00:55:21;102967.16;;;3.16;91.51
76637;BME280;65532;52.124;5.480;2023-05-03T00:57:48;102967.38;;;3.13;92.10
76637;BME280;65532;52.124;5.480;2023-05-03T01:00:15;102974.56;;;3.13;92.66
76637;BME280;65532;52.124;5.480;2023-05-03T01:02:43;102976.25;;;3.14;92.15
76637;BME280;65532;52.124;5.480;2023-05-03T01:05:10;102967.66;;;3.10;92.02
76637;BME280;65532;52.124;5.480;2023-05-03T01:08:00;102964.25;;;3.08;91.32
76637;BME280;65532;52.124;5.480;2023-05-03T01:13:23;102978.63;;;3.07;91.33
76637;BME280;65532;52.124;5.480;2023-05-03T01:15:59;102972.44;;;3.07;91.95
76637;BME280;65532;52.124;5.480;2023-05-03T01:18:29;102966.50;;;3.03;91.95
76637;BME280;65532;52.124;5.480;2023-05-03T01:20:59;102973.81;;;3.01;91.10
76637;BME280;65532;52.124;5.480;2023-05-03T01:24:02;102972.19;;;2.98;91.54
76637;BME280;65532;52.124;5.480;2023-05-03T01:26:29;102976.13;;;2.94;91.51
76637;BME280;65532;52.124;5.480;2023-05-03T01:28:55;102969.72;;;2.86;91.81
76637;BME280;65532;52.124;5.480;2023-05-03T01:37:07;102967.41;;;2.81;90.64
76637;BME280;65532;52.124;5.480;2023-05-03T01:39:55;102962.72;;;2.74;90.40
76637;BME280;65532;52.124;5.480;2023-05-03T01:42:24;102962.25;;;2.68;90.05
76637;BME280;65532;52.124;5.480;2023-05-03T01:44:53;102958.84;;;2.66;89.47
76637;BME280;65532;52.124;5.480;2023-05-03T01:47:20;102966.13;;;2.64;88.88
76637;BME280;65532;52.124;5.480;2023-05-03T01:49:46;102972.34;;;2.65;88.54
76637;BME280;65532;52.124;5.480;2023-05-03T01:52:13;102969.78;;;2.63;87.89
76637;BME280;65532;52.124;5.480;2023-05-03T01:54:39;102968.94;;;2.63;87.99
76637;BME280;65532;52.124;5.480;2023-05-03T01:57:06;102964.69;;;2.60;87.97
76637;BME280;65532;52.124;5.480;2023-05-03T01:59:32;102965.69;;;2.59;87.80
76637;BME280;65532;52.124;5.480;2023-05-03T02:01:59;102963.00;;;2.59;87.15
76637;BME280;65532;52.124;5.480;2023-05-03T02:04:25;102963.00;;;2.59;87.93
76637;BME280;65532;52.124;5.480;2023-05-03T02:06:55;102952.06;;;2.62;87.75
76637;BME280;65532;52.124;5.480;2023-05-03T02:09:23;102964.69;;;2.60;87.89
76637;BME280;65532;52.124;5.480;2023-05-03T02:11:49;102956.81;;;2.59;88.05
76637;BME280;65532;52.124;5.480;2023-05-03T02:14:16;102960.59;;;2.56;88.33
76637;BME280;65532;52.124;5.480;2023-05-03T02:16:42;102964.38;;;2.54;88.00
76637;BME280;65532;52.124;5.480;2023-05-03T02:19:09;102957.34;;;2.53;88.37
76637;BME280;65532;52.124;5.480;2023-05-03T02:21:36;102952.47;;;2.47;87.80
76637;BME280;65532;52.124;5.480;2023-05-03T02:24:03;102946.53;;;2.43;87.71
76637;BME280;65532;52.124;5.480;2023-05-03T02:26:29;102943.00;;;2.43;87.37
76637;BME280;65532;52.124;5.480;2023-05-03T02:28:56;102946.41;;;2.45;87.13
76637;BME280;65532;52.124;5.480;2023-05-03T02:31:26;102944.84;;;2.42;87.29
76637;BME280;65532;52.124;5.480;2023-05-03T02:33:54;102944.13;;;2.40;88.06
76637;BME280;65532;52.124;5.480;2023-05-03T02:36:21;102946.06;;;2.38;87.28
76637;BME280;65532;52.124;5.480;2023-05-03T02:38:48;102936.34;;;2.37;87.41
76637;BME280;65532;52.124;5.480;2023-05-03T02:41:14;102936.00;;;2.30;87.61
76637;BME280;65532;52.124;5.480;2023-05-03T02:43:41;102932.00;;;2.25;87.60
76637;BME280;65532;52.124;5.480;2023-05-03T02:46:07;102935.03;;;2.20;87.19
76637;BME280;65532;52.124;5.480;2023-05-03T02:48:34;102931.28;;;2.12;86.41
76637;BME280;65532;52.124;5.480;2023-05-03T02:51:01;102929.59;;;2.10;86.16
76637;BME280;65532;52.124;5.480;2023-05-03T02:53:28;102922.06;;;2.16;85.24
76637;BME280;65532;52.124;5.480;2023-05-03T02:55:58;102917.44;;;2.18;85.43
76637;BME280;65532;52.124;5.480;2023-05-03T02:58:24;102916.72;;;2.16;85.03
76637;BME280;65532;52.124;5.480;2023-05-03T03:00:51;102915.00;;;2.15;85.54
76637;BME280;65532;52.124;5.480;2023-05-03T03:03:18;102913.31;;;2.14;85.60
76637;BME280;65532;52.124;5.480;2023-05-03T03:05:44;102925.94;;;2.12;87.18
76637;BME280;65532;52.124;5.480;2023-05-03T03:08:13;102917.94;;;2.00;87.73
76637;BME280;65532;52.124;5.480;2023-05-03T03:10:39;102919.31;;;1.95;87.69
76637;BME280;65532;52.124;5.480;2023-05-03T03:13:07;102929.13;;;1.94;88.24
76637;BME280;65532;52.124;5.480;2023-05-03T03:15:37;102923.91;;;1.93;87.91
76637;BME280;65532;52.124;5.480;2023-05-03T03:18:03;102932.06;;;1.91;88.75
76637;BME280;65532;52.124;5.480;2023-05-03T03:20:30;102933.03;;;1.90;88.47
76637;BME280;65532;52.124;5.480;2023-05-03T03:22:56;102936.66;;;1.89;89.38
76637;BME280;65532;52.124;5.480;2023-05-03T03:25:23;102933.25;;;1.87;89.36
76637;BME280;65532;52.124;5.480;2023-05-03T03:27:50;102937.16;;;1.83;89.07
76637;BME280;65532;52.124;5.480;2023-05-03T03:30:16;102937.41;;;1.80;89.39
76637;BME280;65532;52.124;5.480;2023-05-03T03:32:54;102935.94;;;1.76;89.29
76637;BME280;65532;52.124;5.480;2023-05-03T03:35:28;102931.34;;;1.78;89.40
76637;BME280;65532;52.124;5.480;2023-05-03T03:37:55;102930.59;;;1.76;89.61
76637;BME280;65532;52.124;5.480;2023-05-03T03:40:23;102932.56;;;1.74;89.30
76637;BME280;65532;52.124;5.480;2023-05-03T03:42:50;102935.44;;;1.71;89.42
76637;BME280;65532;52.124;5.480;2023-05-03T03:45:17;102936.91;;;1.64;90.02
76637;BME280;65532;52.124;5.480;2023-05-03T03:47:44;102941.66;;;1.60;90.13
76637;BME280;65532;52.124;5.480;2023-05-03T03:50:11;102933.75;;;1.59;89.96
76637;BME280;65532;52.124;5.480;2023-05-03T03:52:37;102937.38;;;1.58;90.18
76637;BME280;65532;52.124;5.480;2023-05-03T03:55:04;102946.34;;;1.57;89.72
76637;BME280;65532;52.124;5.480;2023-05-03T03:57:31;102953.63;;;1.55;89.31
76637;BME280;65532;52.124;5.480;2023-05-03T03:59:58;102948.53;;;1.52;89.56
76637;BME280;65532;52.124;5.480;2023-05-03T04:02:27;102953.75;;;1.53;88.68
76637;BME280;65532;52.124;5.480;2023-05-03T04:04:53;102960.06;;;1.52;88.02
76637;BME280;65532;52.124;5.480;2023-05-03T04:07:20;102962.84;;;1.50;87.76
76637;BME280;65532;52.124;5.480;2023-05-03T04:09:47;102956.66;;;1.50;88.15
76637;BME280;65532;52.124;5.480;2023-05-03T04:12:14;102954.72;;;1.52;87.70
76637;BME280;65532;52.124;5.480;2023-05-03T04:14:43;102949.50;;;1.50;87.67
76637;BME280;65532;52.124;5.480;2023-05-03T04:17:09;102949.38;;;1.52;87.73
76637;BME280;65532;52.124;5.480;2023-05-03T04:19:36;102960.91;;;1.53;86.73
76637;BME280;65532;52.124;5.480;2023-05-03T04:22:04;102958.97;;;1.55;85.74
76637;BME280;65532;52.124;5.480;2023-05-03T04:24:31;102958.97;;;1.55;85.21
76637;BME280;65532;52.124;5.480;2023-05-03T04:26:58;102958.97;;;1.55;84.71
76637;BME280;65532;52.124;5.480;2023-05-03T04:29:28;102961.41;;;1.58;84.46
76637;BME280;65532;52.124;5.480;2023-05-03T04:31:55;102964.19;;;1.56;84.34
76637;BME280;65532;52.124;5.480;2023-05-03T04:34:22;102979.13;;;1.59;84.94
76637;BME280;65532;52.124;5.480;2023-05-03T04:36:51;102978.16;;;1.60;85.25
76637;BME280;65532;52.124;5.480;2023-05-03T04:39:17;102985.81;;;1.64;85.53
76637;BME280;65532;52.124;5.480;2023-05-03T04:41:46;102990.91;;;1.67;85.32
76637;BME280;65532;52.124;5.480;2023-05-03T04:44:12;103000.47;;;1.70;85.93
76637;BME280;65532;52.124;5.480;2023-05-03T04:46:42;102994.06;;;1.72;85.15
76637;BME280;65532;52.124;5.480;2023-05-03T04:49:09;102995.66;;;1.75;84.81
76637;BME280;65532;52.124;5.480;2023-05-03T04:51:35;102995.41;;;1.78;85.49
76637;BME280;65532;52.124;5.480;2023-05-03T04:54:02;103002.19;;;1.82;85.27
76637;BME280;65532;52.124;5.480;2023-05-03T04:56:28;103002.69;;;1.87;85.52
76637;BME280;65532;52.124;5.480;2023-05-03T04:59:04;103003.19;;;1.92;85.14
76637;BME280;65532;52.124;5.480;2023-05-03T05:01:32;103005.38;;;1.98;85.80
76637;BME280;65532;52.124;5.480;2023-05-03T05:04:01;103014.69;;;2.04;85.81
76637;BME280;65532;52.124;5.480;2023-05-03T05:06:34;103004.41;;;2.10;86.87
76637;BME280;65532;52.124;5.480;2023-05-03T05:09:01;103006.09;;;2.12;86.82
76637;BME280;65532;52.124;5.480;2023-05-03T05:11:27;103005.84;;;2.15;86.38
76637;BME280;65532;52.124;5.480;2023-05-03T05:13:54;103011.44;;;2.23;85.65
76637;BME280;65532;52.124;5.480;2023-05-03T05:16:21;103009.72;;;2.33;85.34
76637;BME280;65532;52.124;5.480;2023-05-03T05:18:51;103005.84;;;2.37;85.52
76637;BME280;65532;52.124;5.480;2023-05-03T05:21:21;103005.59;;;2.40;85.75
76637;BME280;65532;52.124;5.480;2023-05-03T05:23:48;103017.00;;;2.42;85.97
76637;BME280;65532;52.124;5.480;2023-05-03T05:26:14;103020.88;;;2.49;85.19
76637;BME280;65532;52.124;5.480;2023-05-03T05:28:41;103015.63;;;2.59;85.46
76637;BME280;65532;52.124;5.480;2023-05-03T05:31:08;103015.00;;;2.66;84.97
76637;BME280;65532;52.124;5.480;2023-05-03T05:33:35;103015.81;;;2.78;85.41
76637;BME280;65532;52.124;5.480;2023-05-03T05:36:03;103018.34;;;2.91;85.91
76637;BME280;65532;52.124;5.480;2023-05-03T05:38:31;103018.16;;;3.04;85.91
76637;BME280;65532;52.124;5.480;2023-05-03T05:40:59;103011.66;;;3.17;86.97
76637;BME280;65532;52.124;5.480;2023-05-03T05:43:25;103022.78;;;3.34;87.81
76637;BME280;65532;52.124;5.480;2023-05-03T05:45:53;103021.97;;;3.43;90.83
76637;BME280;65532;52.124;5.480;2023-05-03T05:48:19;103014.03;;;3.52;91.72
76637;BME280;65532;52.124;5.480;2023-05-03T05:50:46;103010.44;;;3.63;91.81
76637;BME280;65532;52.124;5.480;2023-05-03T05:53:13;103013.88;;;3.75;92.31
76637;BME280;65532;52.124;5.480;2023-05-03T05:55:46;103008.31;;;3.87;92.57
76637;BME280;65532;52.124;5.480;2023-05-03T05:58:12;103015.28;;;4.00;92.94
76637;BME280;65532;52.124;5.480;2023-05-03T06:00:44;103018.31;;;4.16;92.96
76637;BME280;65532;52.124;5.480;2023-05-03T06:03:15;103017.22;;;4.28;93.13
76637;BME280;65532;52.124;5.480;2023-05-03T06:05:41;103013.31;;;4.42;92.38
76637;BME280;65532;52.124;5.480;2023-05-03T06:08:09;103018.03;;;4.59;92.20
76637;BME280;65532;52.124;5.480;2023-05-03T06:10:36;103012.13;;;4.75;92.34
76637;BME280;65532;52.124;5.480;2023-05-03T06:13:03;103019.63;;;4.91;92.07
76637;BME280;65532;52.124;5.480;2023-05-03T06:15:31;103018.09;;;5.07;91.83
76637;BME280;65532;52.124;5.480;2023-05-03T06:17:57;103024.13;;;5.29;91.83
76637;BME280;65532;52.124;5.480;2023-05-03T06:20:24;103022.16;;;5.40;90.86
76637;BME280;65532;52.124;5.480;2023-05-03T06:22:52;103014.34;;;5.57;90.88
76637;BME280;65532;52.124;5.480;2023-05-03T06:25:19;103018.97;;;5.74;90.26
76637;BME280;65532;52.124;5.480;2023-05-03T06:27:47;103013.16;;;5.88;89.98
76637;BME280;65532;52.124;5.480;2023-05-03T06:30:16;103015.94;;;6.06;89.21
76637;BME280;65532;52.124;5.480;2023-05-03T06:32:46;103014.47;;;6.21;88.75
76637;BME280;65532;52.124;5.480;2023-05-03T06:35:13;103013.28;;;6.34;87.65
76637;BME280;65532;52.124;5.480;2023-05-03T06:37:39;102996.72;;;6.56;86.53
76637;BME280;65532;52.124;5.480;2023-05-03T06:40:06;103000.56;;;6.71;85.46
76637;BME280;65532;52.124;5.480;2023-05-03T06:42:35;103007.44;;;6.83;84.47
76637;BME280;65532;52.124;5.480;2023-05-03T06:45:11;103007.38;;;7.11;84.44
76637;BME280;65532;52.124;5.480;2023-05-03T06:47:37;103000.72;;;7.23;82.21
76637;BME280;65532;52.124;5.480;2023-05-03T06:50:06;102999.09;;;7.30;80.55
76637;BME280;65532;52.124;5.480;2023-05-03T06:52:32;103004.38;;;7.40;80.91
76637;BME280;65532;52.124;5.480;2023-05-03T06:54:59;102998.53;;;8.81;81.96
76637;BME280;65532;52.124;5.480;2023-05-03T06:57:26;103004.50;;;10.83;76.10
76637;BME280;65532;52.124;5.480;2023-05-03T06:59:54;102989.44;;;12.38;66.42
76637;BME280;65532;52.124;5.480;2023-05-03T07:02:20;102991.47;;;13.08;61.66
76637;BME280;65532;52.124;5.480;2023-05-03T07:04:48;102997.06;;;13.42;56.69
76637;BME280;65532;52.124;5.480;2023-05-03T07:07:14;102998.34;;;13.25;55.42
76637;BME280;65532;52.124;5.480;2023-05-03T07:09:41;102999.06;;;13.12;55.51
76637;BME280;65532;52.124;5.480;2023-05-03T07:12:09;102985.72;;;13.17;54.92
76637;BME280;65532;52.124;5.480;2023-05-03T07:14:37;102986.22;;;13.77;53.59
76637;BME280;65532;52.124;5.480;2023-05-03T07:17:05;102985.16;;;13.50;51.74
76637;BME280;65532;52.124;5.480;2023-05-03T07:19:31;102974.91;;;13.80;52.23
76637;BME280;65532;52.124;5.480;2023-05-03T07:21:58;102976.69;;;14.01;52.48
76637;BME280;65532;52.124;5.480;2023-05-03T07:24:24;102980.59;;;14.67;50.74
76637;BME280;65532;52.124;5.480;2023-05-03T07:26:52;102977.06;;;14.87;48.79
76637;BME280;65532;52.124;5.480;2023-05-03T07:29:18;102976.25;;;15.13;49.02
76637;BME280;65532;52.124;5.480;2023-05-03T07:31:45;102960.81;;;16.04;47.96
76637;BME280;65532;52.124;5.480;2023-05-03T07:34:12;102950.75;;;16.50;46.91
76637;BME280;65532;52.124;5.480;2023-05-03T07:36:38;102960.09;;;15.31;47.31
76637;BME280;65532;52.124;5.480;2023-05-03T07:39:05;102942.47;;;16.18;46.84
76637;BME280;65532;52.124;5.480;2023-05-03T07:41:32;102947.53;;;16.97;46.92
76637;BME280;65532;52.124;5.480;2023-05-03T07:43:59;102944.78;;;16.97;46.71
76637;BME280;65532;52.124;5.480;2023-05-03T07:46:25;102938.25;;;16.29;46.39
76637;BME280;65532;52.124;5.480;2023-05-03T07:48:52;102938.16;;;15.91;44.16
76637;BME280;65532;52.124;5.480;2023-05-03T07:51:18;102941.47;;;16.12;44.83
76637;BME280;65532;52.124;5.480;2023-05-03T07:53:46;102936.06;;;16.37;44.07
76637;BME280;65532;52.124;5.480;2023-05-03T07:56:12;102934.91;;;15.62;44.90
76637;BME280;65532;52.124;5.480;2023-05-03T07:58:39;102938.59;;;16.39;46.31
76637;BME280;65532;52.124;5.480;2023-05-03T08:01:08;102950.00;;;16.29;42.68
76637;BME280;65532;52.124;5.480;2023-05-03T08:03:35;102937.91;;;16.05;43.53
76637;BME280;65532;52.124;5.480;2023-05-03T08:06:02;102926.19;;;16.36;42.96
76637;BME280;65532;52.124;5.480;2023-05-03T08:08:28;102935.91;;;16.70;43.23
76637;BME280;65532;52.124;5.480;2023-05-03T08:10:56;102933.75;;;16.79;42.79
76637;BME280;65532;52.124;5.480;2023-05-03T08:13:23;102935.78;;;16.90;42.83
76637;BME280;65532;52.124;5.480;2023-05-03T08:15:50;102933.38;;;17.00;42.78
76637;BME280;65532;52.124;5.480;2023-05-03T08:18:16;102941.03;;;16.92;41.89
76637;BME280;65532;52.124;5.480;2023-05-03T08:20:43;102942.53;;;16.88;42.49
76637;BME280;65532;52.124;5.480;2023-05-03T08:23:10;102939.84;;;15.92;43.33
76637;BME280;65532;52.124;5.480;2023-05-03T08:25:36;102933.84;;;15.04;43.10
76637;BME280;65532;52.124;5.480;2023-05-03T08:28:03;102926.53;;;13.47;46.61
76637;BME280;65532;52.124;5.480;2023-05-03T08:30:29;102932.31;;;12.88;47.91
76637;BME280;65532;52.124;5.480;2023-05-03T08:32:56;102919.25;;;12.20;49.56
76637;BME280;65532;52.124;5.480;2023-05-03T08:35:23;102910.66;;;12.16;50.02
76637;BME280;65532;52.124;5.480;2023-05-03T08:37:49;102904.84;;;12.05;50.85
76637;BME280;65532;52.124;5.480;2023-05-03T08:40:16;102898.13;;;12.37;49.23
76637;BME280;65532;52.124;5.480;2023-05-03T08:42:44;102905.25;;;12.38;49.71
76637;BME280;65532;52.124;5.480;2023-05-03T08:45:13;102917.50;;;12.70;49.72
76637;BME280;65532;52.124;5.480;2023-05-03T08:47:42;102910.09;;;12.42;48.86
76637;BME280;65532;52.124;5.480;2023-05-03T08:50:11;102912.75;;;12.57;48.93
76637;BME280;65532;52.124;5.480;2023-05-03T08:52:39;102915.53;;;12.85;49.46
76637;BME280;65532;52.124;5.480;2023-05-03T08:55:08;102927.81;;;12.59;50.50
76637;BME280;65532;52.124;5.480;2023-05-03T08:57:35;102927.22;;;12.79;50.02
76637;BME280;65532;52.124;5.480;2023-05-03T09:00:02;102922.19;;;13.04;48.85
76637;BME280;65532;52.124;5.480;2023-05-03T09:02:36;102932.31;;;12.88;49.20
76637;BME280;65532;52.124;5.480;2023-05-03T09:05:51;102936.53;;;13.40;49.65
76637;BME280;65532;52.124;5.480;2023-05-03T09:08:04;102929.19;;;13.69;48.47
76637;BME280;65532;52.124;5.480;2023-05-03T09:10:31;102938.56;;;13.32;48.83
76637;BME280;65532;52.124;5.480;2023-05-03T09:13:00;102932.06;;;13.61;49.11
76637;BME280;65532;52.124;5.480;2023-05-03T09:15:30;102930.31;;;13.81;49.07
76637;BME280;65532;52.124;5.480;2023-05-03T09:18:16;102929.56;;;14.48;47.09
76637;BME280;65532;52.124;5.480;2023-05-03T09:20:44;102936.31;;;14.59;47.25
76637;BME280;65532;52.124;5.480;2023-05-03T09:25:51;102935.13;;;13.79;48.14
76637;BME280;65532;52.124;5.480;2023-05-03T09:28:19;102941.88;;;13.27;48.41
76637;BME280;65532;52.124;5.480;2023-05-03T09:30:47;102936.50;;;12.91;48.25
76637;BME280;65532;52.124;5.480;2023-05-03T09:33:14;102941.09;;;12.69;49.66
76637;BME280;65532;52.124;5.480;2023-05-03T09:36:04;102929.94;;;13.07;49.62
76637;BME280;65532;52.124;5.480;2023-05-03T09:38:33;102934.28;;;13.78;48.91
76637;BME280;65532;52.124;5.480;2023-05-03T09:41:02;102942.88;;;14.23;48.93
76637;BME280;65532;52.124;5.480;2023-05-03T09:43:32;102942.22;;;14.69;47.74
76637;BME280;65532;52.124;5.480;2023-05-03T09:46:09;102944.34;;;14.26;47.03
76637;BME280;65532;52.124;5.480;2023-05-03T09:48:37;102943.06;;;13.81;47.27
76637;BME280;65532;52.124;5.480;2023-05-03T09:51:05;102935.31;;;13.77;47.12
76637;BME280;65532;52.124;5.480;2023-05-03T09:53:32;102937.59;;;13.74;46.51
76637;BME280;65532;52.124;5.480;2023-05-03T09:56:02;102941.63;;;14.32;46.58
76637;BME280;65532;52.124;5.480;2023-05-03T09:58:28;102929.03;;;14.25;46.66
76637;BME280;65532;52.124;5.480;2023-05-03T10:00:56;102928.25;;;14.37;46.64
76637;BME280;65532;52.124;5.480;2023-05-03T10:03:27;102939.84;;;14.46;45.94
76637;BME280;65532;52.124;5.480;2023-05-03T10:06:00;102932.53;;;14.53;45.42
76637;BME280;65532;52.124;5.480;2023-05-03T10:08:40;102924.38;;;14.80;45.57
76637;BME280;65532;52.124;5.480;2023-05-03T10:11:07;102928.13;;;14.59;45.23
76637;BME280;65532;52.124;5.480;2023-05-03T10:13:34;102913.69;;;14.85;45.19
76637;BME280;65532;52.124;5.480;2023-05-03T10:16:05;102914.53;;;14.92;45.20
76637;BME280;65532;52.124;5.480;2023-05-03T10:18:33;102923.16;;;15.15;44.79
76637;BME280;65532;52.124;5.480;2023-05-03T10:21:06;102923.31;;;14.81;46.06
76637;BME280;65532;52.124;5.480;2023-05-03T10:23:34;102915.38;;;14.86;44.66
76637;BME280;65532;52.124;5.480;2023-05-03T10:28:42;102907.19;;;14.92;43.87
76637;BME280;65532;52.124;5.480;2023-05-03T10:31:44;102900.28;;;14.83;44.75
76637;BME280;65532;52.124;5.480;2023-05-03T10:34:19;102889.13;;;14.98;44.77
76637;BME280;65532;52.124;5.480;2023-05-03T10:36:50;102898.38;;;14.97;45.14
76637;BME280;65532;52.124;5.480;2023-05-03T10:39:20;102895.63;;;15.37;44.46
76637;BME280;65532;52.124;5.480;2023-05-03T10:42:07;102889.53;;;15.48;44.71
76637;BME280;65532;52.124;5.480;2023-05-03T10:44:38;102889.97;;;14.79;44.86
76637;BME280;65532;52.124;5.480;2023-05-03T10:47:19;102890.19;;;14.77;44.87
76637;BME280;65532;52.124;5.480;2023-05-03T10:57:41;102895.63;;;15.23;43.08
76637;BME280;65532;52.124;5.480;2023-05-03T11:00:13;102896.66;;;14.56;44.85
76637;BME280;65532;52.124;5.480;2023-05-03T11:05:38;102882.91;;;15.88;44.05
76637;BME280;65532;52.124;5.480;2023-05-03T11:08:12;102886.69;;;15.94;42.80
76637;BME280;65532;52.124;5.480;2023-05-03T11:10:40;102877.69;;;15.74;43.59
76637;BME280;65532;52.124;5.480;2023-05-03T11:13:07;102871.66;;;15.65;42.09
76637;BME280;65532;52.124;5.480;2023-05-03T11:15:33;102872.31;;;16.12;41.89
76637;BME280;65532;52.124;5.480;2023-05-03T11:18:00;102861.50;;;15.85;43.13
76637;BME280;65532;52.124;5.480;2023-05-03T11:20:27;102858.31;;;15.88;43.11
76637;BME280;65532;52.124;5.480;2023-05-03T11:22:54;102851.22;;;15.74;42.57
76637;BME280;65532;52.124;5.480;2023-05-03T11:25:21;102853.19;;;15.41;43.74
76637;BME280;65532;52.124;5.480;2023-05-03T11:27:48;102847.69;;;15.54;43.31
76637;BME280;65532;52.124;5.480;2023-05-03T11:30:14;102855.72;;;15.36;42.66
76637;BME280;65532;52.124;5.480;2023-05-03T11:32:41;102852.19;;;15.93;42.82
76637;BME280;65532;52.124;5.480;2023-05-03T11:35:09;102850.16;;;16.20;41.72
76637;BME280;65532;52.124;5.480;2023-05-03T11:37:36;102839.41;;;16.25;41.66
76637;BME280;65532;52.124;5.480;2023-05-03T11:40:02;102847.66;;;16.82;41.56
76637;BME280;65532;52.124;5.480;2023-05-03T11:42:30;102841.72;;;16.60;40.26
76637;BME280;65532;52.124;5.480;2023-05-03T11:44:56;102824.94;;;16.50;40.73
76637;BME280;65532;52.124;5.480;2023-05-03T11:47:23;102837.31;;;16.27;41.77
76637;BME280;65532;52.124;5.480;2023-05-03T11:49:55;102835.66;;;16.20;42.37
76637;BME280;65532;52.124;5.480;2023-05-03T11:52:23;102838.28;;;16.01;42.62
76637;BME280;65532;52.124;5.480;2023-05-03T11:54:50;102835.00;;;15.86;42.57
76637;BME280;65532;52.124;5.480;2023-05-03T11:57:18;102824.41;;;16.03;42.13
76637;BME280;65532;52.124;5.480;2023-05-03T11:59:44;102823.66;;;16.27;42.23
76637;BME280;65532;52.124;5.480;2023-05-03T12:02:12;102817.53;;;16.25;40.30
76637;BME280;65532;52.124;5.480;2023-05-03T12:04:42;102817.44;;;16.38;41.12
76637;BME280;65532;52.124;5.480;2023-05-03T12:07:12;102815.69;;;16.51;41.50
76637;BME280;65532;52.124;5.480;2023-05-03T12:09:46;102811.78;;;16.65;40.28
76637;BME280;65532;52.124;5.480;2023-05-03T12:12:32;102803.53;;;16.46;41.07
76637;BME280;65532;52.124;5.480;2023-05-03T12:15:02;102810.50;;;16.74;40.76
76637;BME280;65532;52.124;5.480;2023-05-03T12:20:32;102803.06;;;15.86;42.89
76637;BME280;65532;52.124;5.480;2023-05-03T12:23:06;102789.34;;;16.31;41.40
76637;BME280;65532;52.124;5.480;2023-05-03T12:25:36;102790.88;;;16.77;41.38
76637;BME280;65532;52.124;5.480;2023-05-03T12:28:05;102792.56;;;16.78;40.67
76637;BME280;65532;52.124;5.480;2023-05-03T12:30:46;102785.19;;;16.79;40.84
76637;BME280;65532;52.124;5.480;2023-05-03T12:33:13;102783.22;;;16.86;40.08
76637;BME280;65532;52.124;5.480;2023-05-03T12:35:42;102781.88;;;16.13;40.80
76637;BME280;65532;52.124;5.480;2023-05-03T12:38:12;102779.00;;;16.02;41.79
76637;BME280;65532;52.124;5.480;2023-05-03T12:40:43;102775.53;;;16.20;39.94
76637;BME280;65532;52.124;5.480;2023-05-03T12:43:10;102771.53;;;16.47;40.69
76637;BME280;65532;52.124;5.480;2023-05-03T12:45:37;102763.59;;;16.39;40.97
76637;BME280;65532;52.124;5.480;2023-05-03T12:48:06;102755.09;;;16.79;41.55
76637;BME280;65532;52.124;5.480;2023-05-03T12:50:34;102755.72;;;16.24;40.82
76637;BME280;65532;52.124;5.480;2023-05-03T12:53:04;102755.41;;;16.14;42.08
76637;BME280;65532;52.124;5.480;2023-05-03T12:55:36;102747.31;;;16.26;40.40
76637;BME280;65532;52.124;5.480;2023-05-03T12:58:09;102747.91;;;16.03;41.27
76637;BME280;65532;52.124;5.480;2023-05-03T13:00:38;102741.91;;;16.69;41.98
76637;BME280;65532;52.124;5.480;2023-05-03T13:03:24;102745.69;;;17.11;40.50
76637;BME280;65532;52.124;5.480;2023-05-03T13:05:59;102743.03;;;17.23;40.06
76637;BME280;65532;52.124;5.480;2023-05-03T13:08:29;102726.69;;;16.98;40.77
76637;BME280;65532;52.124;5.480;2023-05-03T13:11:00;102720.97;;;16.81;39.65
76637;BME280;65532;52.124;5.480;2023-05-03T13:13:27;102719.38;;;16.48;40.10
76637;BME280;65532;52.124;5.480;2023-05-03T13:15:53;102723.50;;;16.58;40.83
76637;BME280;65532;52.124;5.480;2023-05-03T13:18:20;102722.19;;;17.22;39.77
76637;BME280;65532;52.124;5.480;2023-05-03T13:20:48;102717.78;;;17.21;39.24
76637;BME280;65532;52.124;5.480;2023-05-03T13:23:15;102706.66;;;17.34;39.92
76637;BME280;65532;52.124;5.480;2023-05-03T13:25:43;102714.59;;;17.05;38.58
76637;BME280;65532;52.124;5.480;2023-05-03T13:28:09;102704.31;;;17.19;38.38
76637;BME280;65532;52.124;5.480;2023-05-03T13:30:36;102695.97;;;17.14;39.66